createdAt,value
2022-11-17T00:01:07.614Z,37.47
2022-11-17T00:04:10.485Z,32.67
2022-11-17T00:07:14.484Z,34.22
2022-11-17T00:10:18.039Z,31.40
2022-11-17T00:13:39.858Z,32.42
2022-11-17T00:16:43.159Z,32.17
2022-11-17T00:20:04.822Z,32.00
2022-11-17T00:23:07.797Z,31.08
2022-11-17T00:26:11.001Z,34.47
2022-11-17T00:29:14.487Z,31.60
2022-11-17T00:32:37.444Z,32.25
2022-11-17T00:35:41.803Z,32.40
2022-11-17T00:38:44.589Z,33.08
2022-11-17T00:41:48.540Z,31.00
2022-11-17T00:44:51.491Z,32.30
2022-11-17T00:47:54.626Z,29.35
2022-11-17T00:50:57.039Z,32.03
2022-11-17T00:54:00.003Z,31.98
2022-11-17T00:57:04.180Z,33.83
2022-11-17T01:00:08.243Z,31.73
2022-11-17T01:03:12.024Z,31.58
2022-11-17T01:06:17.789Z,32.23
2022-11-17T01:09:23.421Z,35.65
2022-11-17T01:12:26.162Z,32.13
2022-11-17T01:15:28.845Z,35.00
2022-11-17T01:18:32.271Z,32.50
2022-11-17T01:21:35.656Z,29.90
2022-11-17T01:24:38.965Z,34.75
2022-11-17T01:27:41.922Z,35.90
2022-11-17T01:30:46.695Z,31.67
2022-11-17T01:33:51.348Z,35.35
2022-11-17T01:37:14.785Z,30.67
2022-11-17T01:40:17.545Z,35.30
2022-11-17T01:43:45.039Z,31.08
2022-11-17T01:46:49.163Z,31.42
2022-11-17T01:49:56.376Z,31.10
2022-11-17T01:53:02.754Z,29.60
2022-11-17T01:56:11.805Z,30.05
2022-11-17T01:59:23.257Z,31.20
2022-11-17T02:02:31.599Z,30.33
2022-11-17T02:54:47.121Z,31.50
2022-11-17T02:57:51.387Z,30.98
2022-11-17T03:01:22.187Z,35.47
2022-11-17T03:04:36.539Z,31.33
2022-11-17T03:07:50.802Z,33.50
2022-11-17T03:11:08.801Z,33.90
2022-11-17T03:14:25.696Z,32.78
2022-11-17T03:17:49.095Z,34.72
2022-11-17T03:20:59.655Z,32.13
2022-11-17T03:24:18.881Z,33.65
2022-11-17T03:27:25.541Z,31.50
2022-11-17T03:30:34.617Z,35.22
2022-11-17T03:33:44.940Z,30.85
2022-11-17T03:36:53.555Z,31.05
2022-11-17T03:40:03.353Z,31.80
2022-11-17T03:43:11.951Z,32.70
2022-11-17T03:46:17.896Z,31.05
2022-11-17T03:49:27.965Z,33.63
2022-11-17T03:52:33.165Z,30.60
2022-11-17T03:56:02.413Z,31.48
2022-11-17T03:59:10.972Z,33.13
2022-11-17T04:02:17.401Z,31.77
2022-11-17T04:05:20.838Z,32.53
2022-11-17T04:08:26.077Z,30.52
2022-11-17T04:11:47.847Z,35.92
2022-11-17T04:15:11.502Z,30.27
2022-11-17T04:18:19.777Z,31.12
2022-11-17T04:21:22.480Z,33.83
2022-11-17T04:24:25.671Z,33.88
2022-11-17T04:27:48.873Z,32.63
2022-11-17T04:30:52.136Z,33.67
2022-11-17T04:34:01.974Z,27.08
2022-11-17T04:37:17.266Z,29.73
2022-11-17T04:40:20.383Z,32.08
2022-11-17T04:43:23.224Z,32.13
2022-11-17T04:46:26.357Z,32.53
2022-11-17T04:49:32.315Z,30.12
2022-11-17T04:52:36.425Z,29.85
2022-11-17T04:55:42.755Z,32.35
2022-11-17T04:58:52.370Z,30.70
2022-11-17T05:02:01.064Z,29.67
2022-11-17T05:05:09.060Z,31.08
2022-11-17T05:08:12.380Z,32.85
2022-11-17T05:11:36.074Z,27.33
2022-11-17T05:14:40.822Z,28.30
2022-11-17T05:17:43.884Z,25.80
2022-11-17T05:20:46.955Z,27.20
2022-11-17T05:23:55.841Z,32.72
2022-11-17T05:26:58.911Z,30.15
2022-11-17T05:30:10.510Z,26.83
2022-11-17T05:33:14.648Z,27.47
2022-11-17T05:36:19.136Z,29.60
2022-11-17T05:39:26.150Z,30.17
2022-11-17T05:42:29.295Z,29.85
2022-11-17T05:45:32.834Z,29.92
2022-11-17T05:48:36.004Z,29.00
2022-11-17T05:51:39.505Z,30.77
2022-11-17T05:54:42.671Z,31.25
2022-11-17T05:57:47.101Z,29.90
2022-11-17T06:00:58.488Z,28.35
2022-11-17T06:04:04.923Z,29.47
2022-11-17T06:07:07.999Z,30.73
2022-11-17T06:10:17.948Z,31.35
2022-11-17T06:13:29.820Z,31.65
2022-11-17T06:16:37.345Z,32.10
2022-11-17T06:19:44.345Z,34.47
2022-11-17T06:22:55.752Z,34.42
2022-11-17T06:26:01.749Z,35.20
2022-11-17T06:29:05.858Z,31.30
2022-11-17T06:32:17.081Z,33.33
2022-11-17T06:35:22.861Z,32.43
2022-11-17T06:38:29.819Z,33.38
2022-11-17T06:41:36.898Z,33.67
2022-11-17T06:44:46.750Z,29.40
2022-11-17T06:47:54.359Z,28.67
2022-11-17T06:51:04.823Z,24.90
2022-11-17T06:54:13.257Z,27.00
2022-11-17T06:57:19.019Z,24.20
2022-11-17T07:00:24.008Z,24.30
2022-11-17T07:03:27.218Z,23.65
2022-11-17T07:06:34.150Z,21.40
2022-11-17T07:09:38.089Z,22.55
2022-11-17T07:12:42.056Z,23.12
2022-11-17T07:15:46.057Z,24.67
2022-11-17T07:18:50.172Z,24.50
2022-11-17T07:21:59.671Z,25.90
2022-11-17T07:25:04.855Z,23.87
2022-11-17T07:28:13.802Z,25.58
2022-11-17T07:31:22.338Z,25.15
2022-11-17T07:34:25.752Z,28.50
2022-11-17T07:37:33.662Z,28.47
2022-11-17T07:40:36.389Z,28.50
2022-11-17T07:43:39.997Z,25.58
2022-11-17T07:46:43.138Z,27.45
2022-11-17T07:49:46.371Z,25.52
2022-11-17T07:52:50.928Z,28.10
2022-11-17T07:55:57.251Z,24.50
2022-11-17T07:59:03.850Z,31.48
2022-11-17T08:02:10.560Z,25.30
2022-11-17T08:05:17.906Z,26.23
2022-11-17T08:08:22.479Z,28.47
2022-11-17T08:11:29.198Z,28.52
2022-11-17T08:14:31.999Z,23.80
2022-11-17T08:17:37.510Z,28.05
2022-11-17T08:20:41.054Z,24.00
2022-11-17T08:23:44.346Z,23.63
2022-11-17T08:26:50.280Z,23.67
2022-11-17T08:29:53.486Z,21.23
2022-11-17T08:33:00.634Z,22.98
2022-11-17T08:36:07.185Z,22.33
2022-11-17T08:39:10.526Z,22.00
2022-11-17T08:42:13.810Z,20.62
2022-11-17T08:45:18.372Z,19.17
2022-11-17T08:48:23.844Z,19.52
2022-11-17T08:51:29.660Z,19.45
2022-11-17T08:54:34.042Z,18.83
2022-11-17T08:57:38.765Z,18.33
2022-11-17T09:00:42.399Z,19.40
2022-11-17T09:03:47.370Z,18.17
2022-11-17T09:06:51.483Z,18.52
2022-11-17T09:09:55.185Z,16.57
2022-11-17T09:12:58.874Z,17.77
2022-11-17T09:16:07.163Z,18.83
2022-11-17T09:19:11.088Z,16.83
2022-11-17T09:22:13.986Z,16.45
2022-11-17T09:25:16.991Z,14.33
2022-11-17T09:28:27.153Z,14.85
2022-11-17T09:31:30.329Z,16.77
2022-11-17T09:34:33.479Z,16.20
2022-11-17T09:37:38.450Z,16.75
2022-11-17T09:40:43.979Z,18.43
2022-11-17T09:43:53.705Z,15.43
2022-11-17T09:47:04.781Z,14.27
2022-11-17T09:50:31.650Z,12.80
2022-11-17T09:54:00.664Z,12.32
2022-11-17T09:57:07.702Z,14.73
2022-11-17T10:00:16.205Z,11.65
2022-11-17T10:03:28.875Z,12.30
2022-11-17T10:06:32.550Z,10.02
2022-11-17T10:09:45.774Z,11.85
2022-11-17T10:12:58.842Z,11.40
2022-11-17T10:16:06.882Z,9.70
2022-11-17T10:19:20.748Z,11.27
2022-11-17T10:22:35.793Z,10.25
2022-11-17T10:25:43.039Z,11.05
2022-11-17T10:29:09.409Z,12.63
2022-11-17T10:32:15.386Z,10.50
2022-11-17T10:35:26.916Z,10.57
2022-11-17T10:38:35.862Z,12.57
2022-11-17T10:41:42.381Z,11.15
2022-11-17T10:44:51.511Z,12.40
2022-11-17T10:48:24.782Z,14.07
2022-11-17T10:51:33.125Z,15.50
2022-11-17T10:54:37.123Z,16.35
2022-11-17T10:57:45.787Z,13.60
2022-11-17T11:01:01.860Z,14.57
2022-11-17T11:04:08.050Z,13.45
2022-11-17T11:07:17.890Z,14.07
2022-11-17T11:10:41.447Z,12.48
2022-11-17T11:13:53.409Z,14.40
2022-11-17T11:16:56.605Z,13.40
2022-11-17T11:20:00.108Z,15.43
2022-11-17T11:23:14.879Z,13.05
2022-11-17T11:26:47.969Z,15.15
2022-11-17T11:30:05.526Z,14.50
2022-11-17T11:33:23.876Z,14.47
2022-11-17T11:36:55.118Z,16.95
2022-11-17T11:40:23.060Z,10.68
2022-11-17T11:43:39.948Z,11.38
2022-11-17T11:46:52.308Z,13.60
2022-11-17T11:50:04.384Z,10.17
2022-11-17T11:53:31.844Z,12.10
2022-11-17T11:56:42.162Z,10.15
2022-11-17T12:00:00.879Z,10.65
2022-11-17T12:03:34.040Z,9.80
2022-11-17T12:06:54.910Z,11.57
2022-11-17T12:10:16.186Z,10.35
2022-11-17T12:13:24.293Z,9.80
2022-11-17T12:16:35.162Z,10.82
2022-11-17T12:20:09.269Z,10.63
2022-11-17T12:23:20.375Z,10.80
2022-11-17T12:26:34.134Z,9.68
2022-11-17T12:29:48.252Z,9.13
2022-11-17T12:32:56.790Z,9.43
2022-11-17T12:36:30.463Z,9.73
2022-11-17T12:39:54.965Z,9.23
2022-11-17T12:43:38.816Z,10.07
2022-11-17T12:46:48.114Z,8.77
2022-11-17T12:50:06.956Z,7.75
2022-11-17T12:53:12.210Z,9.13
2022-11-17T12:56:34.033Z,8.27
2022-11-17T13:00:00.013Z,8.02
2022-11-17T13:03:14.892Z,9.02
2022-11-17T13:06:35.296Z,7.72
2022-11-17T13:09:39.195Z,8.43
2022-11-17T13:12:42.982Z,8.13
2022-11-17T13:16:00.793Z,9.63
2022-11-17T13:19:34.377Z,7.80
2022-11-17T13:22:41.941Z,8.65
2022-11-17T13:25:49.067Z,9.85
2022-11-17T13:29:10.836Z,9.33
2022-11-17T13:32:21.351Z,9.13
2022-11-17T13:35:39.769Z,8.40
2022-11-17T13:38:53.256Z,10.73
2022-11-17T13:41:58.956Z,10.38
2022-11-17T13:45:06.322Z,8.90
2022-11-17T13:48:33.160Z,8.80
2022-11-17T13:51:46.304Z,8.77
2022-11-17T13:54:57.711Z,9.00
2022-11-17T13:58:05.568Z,9.57
2022-11-17T14:01:13.931Z,11.00
2022-11-17T14:04:24.720Z,12.70
2022-11-17T14:07:31.905Z,11.30
2022-11-17T14:10:39.151Z,12.37
2022-11-17T14:14:01.404Z,12.25
2022-11-17T14:17:22.913Z,12.23
2022-11-17T14:20:27.846Z,14.05
2022-11-17T14:23:37.161Z,14.40
2022-11-17T14:26:44.928Z,17.77
2022-11-17T14:29:54.060Z,17.05
2022-11-17T14:33:09.040Z,16.97
2022-11-17T14:36:19.870Z,17.98
2022-11-17T14:39:24.521Z,19.77
2022-11-17T14:42:32.869Z,20.33
2022-11-17T14:45:39.492Z,20.42
2022-11-17T14:48:43.379Z,21.33
2022-11-17T14:52:00.140Z,22.25
2022-11-17T14:55:05.892Z,20.23
2022-11-17T14:58:10.282Z,19.70
2022-11-17T15:01:20.545Z,24.08
2022-11-17T15:08:08.849Z,39.33
2022-11-17T15:11:17.892Z,33.97
2022-11-17T15:14:23.211Z,27.80
2022-11-17T15:17:30.366Z,46.75
2022-11-17T15:20:36.826Z,39.50
2022-11-17T15:23:47.185Z,42.83
2022-11-17T15:26:52.857Z,42.53
2022-11-17T15:29:59.093Z,35.63
2022-11-17T15:33:19.765Z,35.35
2022-11-17T15:36:32.862Z,27.90
2022-11-17T15:39:39.842Z,27.40
2022-11-17T15:42:44.087Z,32.80
2022-11-17T15:46:21.558Z,56.63
2022-11-17T15:49:34.430Z,77.07
2022-11-17T15:53:02.940Z,56.97
2022-11-17T15:56:14.361Z,47.80
2022-11-17T15:59:21.183Z,59.65
2022-11-17T16:02:25.834Z,53.10
2022-11-17T16:05:30.864Z,48.17
2022-11-17T16:08:37.069Z,40.00
2022-11-17T16:11:47.798Z,35.05
2022-11-17T16:14:58.581Z,31.70
2022-11-17T16:18:04.056Z,35.85
2022-11-17T16:21:12.847Z,42.65
2022-11-17T16:24:32.845Z,34.57
2022-11-17T16:27:42.855Z,29.23
2022-11-17T16:30:49.482Z,28.77
2022-11-17T16:34:09.004Z,30.12
2022-11-17T16:37:22.798Z,30.40
2022-11-17T16:40:35.918Z,55.00
2022-11-17T16:43:51.999Z,29.58
2022-11-17T16:47:00.391Z,34.83
2022-11-17T16:50:09.842Z,34.28
2022-11-17T16:53:16.875Z,35.45
2022-11-17T16:56:37.077Z,31.33
2022-11-17T16:59:42.497Z,33.35
2022-11-17T17:02:57.969Z,29.67
2022-11-17T17:06:19.270Z,32.83
2022-11-17T17:09:32.804Z,30.20
2022-11-17T17:12:37.845Z,28.10
2022-11-17T17:15:40.801Z,28.40
2022-11-17T17:18:50.742Z,30.20
2022-11-17T17:22:01.824Z,29.40
2022-11-17T17:25:22.840Z,31.77
2022-11-17T17:28:33.544Z,28.47
2022-11-17T17:31:39.794Z,28.98
2022-11-17T17:34:45.294Z,30.30
2022-11-17T17:37:48.710Z,32.03
2022-11-17T17:40:52.827Z,33.83
2022-11-17T17:44:02.983Z,31.50
2022-11-17T17:47:07.018Z,34.97
2022-11-17T17:50:10.355Z,29.80
2022-11-17T17:53:14.905Z,33.75
2022-11-17T17:56:22.027Z,36.92
2022-11-17T17:59:30.042Z,40.47
2022-11-17T18:02:38.030Z,37.65
2022-11-17T18:05:46.522Z,39.33
2022-11-17T18:09:04.063Z,40.88
2022-11-17T18:12:09.098Z,38.70
2022-11-17T18:15:19.287Z,31.93
2022-11-17T18:18:26.030Z,31.85
2022-11-17T18:21:31.863Z,33.53
2022-11-17T18:24:40.733Z,36.10
2022-11-17T18:27:45.637Z,33.88
2022-11-17T18:30:51.174Z,37.53
2022-11-17T18:34:01.824Z,35.65
2022-11-17T18:37:19.237Z,37.08
2022-11-17T18:40:22.444Z,40.65
2022-11-17T18:43:34.819Z,36.20
2022-11-17T18:46:41.420Z,37.97
2022-11-17T18:49:53.401Z,41.80
2022-11-17T18:53:06.067Z,39.15
2022-11-17T18:56:13.152Z,41.00
2022-11-17T18:59:19.966Z,43.05
2022-11-17T19:02:24.373Z,36.67
2022-11-17T19:05:36.874Z,37.05
2022-11-17T19:08:41.150Z,38.22
2022-11-17T19:11:46.521Z,37.42
2022-11-17T19:15:10.747Z,34.30
2022-11-17T19:18:15.973Z,42.30
2022-11-17T19:21:38.825Z,41.05
2022-11-17T19:24:48.844Z,40.08
2022-11-17T19:28:01.808Z,38.17
2022-11-17T19:31:24.733Z,41.88
2022-11-17T19:34:35.817Z,40.57
2022-11-17T19:37:41.845Z,41.53
2022-11-17T19:40:46.213Z,47.45
2022-11-17T19:44:00.061Z,46.40
2022-11-17T19:47:13.829Z,39.75
2022-11-17T19:50:17.513Z,43.87
2022-11-17T19:53:43.871Z,42.42
2022-11-17T19:56:49.809Z,44.78
2022-11-17T19:59:54.654Z,41.60
2022-11-17T20:03:01.769Z,41.20
2022-11-17T20:06:11.027Z,42.17
2022-11-17T20:09:23.317Z,33.42
2022-11-17T20:12:42.744Z,32.35
2022-11-17T20:15:57.094Z,35.17
2022-11-17T20:19:03.996Z,36.83
2022-11-17T20:22:17.854Z,37.20
2022-11-17T20:25:26.807Z,36.28
2022-11-17T20:28:35.910Z,37.70
2022-11-17T20:31:41.095Z,42.62
2022-11-17T20:34:44.997Z,36.97
2022-11-17T20:37:49.173Z,36.37
2022-11-17T20:41:02.048Z,38.65
2022-11-17T20:44:24.868Z,38.17
2022-11-17T20:47:33.002Z,41.28
2022-11-17T20:50:42.845Z,41.67
2022-11-17T20:53:47.816Z,42.33
2022-11-17T20:56:52.209Z,42.00
2022-11-17T21:00:04.108Z,45.97
2022-11-17T21:03:08.999Z,40.22
2022-11-17T21:06:14.828Z,39.13
2022-11-17T21:09:26.054Z,39.90
2022-11-17T21:12:33.800Z,39.00
2022-11-17T21:15:45.187Z,37.38
2022-11-17T21:18:49.801Z,35.47
2022-11-17T21:21:55.095Z,37.78
2022-11-17T21:24:58.782Z,37.37
2022-11-17T21:28:08.146Z,37.97
2022-11-17T21:31:15.799Z,38.17
2022-11-17T21:34:22.792Z,36.08
2022-11-17T21:37:28.061Z,35.40
2022-11-17T21:40:31.770Z,43.80
2022-11-17T21:43:42.896Z,42.75
2022-11-17T21:46:47.733Z,43.25
2022-11-17T21:49:57.696Z,45.20
2022-11-17T21:53:11.097Z,42.55
2022-11-17T21:56:14.420Z,42.10
2022-11-17T21:59:17.931Z,39.45
2022-11-17T22:02:28.719Z,41.58
2022-11-17T22:05:37.793Z,38.70
2022-11-17T22:08:43.542Z,39.20
2022-11-17T22:11:51.821Z,38.60
2022-11-17T22:14:55.813Z,39.67
2022-11-17T22:17:59.418Z,39.03
2022-11-17T22:21:06.904Z,40.78
2022-11-17T22:24:12.847Z,42.47
2022-11-17T22:27:15.825Z,39.40
2022-11-17T22:30:22.118Z,40.38
2022-11-17T22:33:24.999Z,41.42
2022-11-17T22:36:28.863Z,40.55
2022-11-17T22:39:31.668Z,40.88
2022-11-17T22:42:34.781Z,43.83
2022-11-17T22:45:40.233Z,42.08
2022-11-17T22:48:46.161Z,42.65
2022-11-17T22:52:04.137Z,41.92
2022-11-17T22:55:08.803Z,44.63
2022-11-17T22:58:15.960Z,43.03
2022-11-17T23:01:19.879Z,47.58
2022-11-17T23:04:23.537Z,43.75
2022-11-17T23:07:26.657Z,43.33
2022-11-17T23:10:30.202Z,43.80
2022-11-17T23:13:33.803Z,42.30
2022-11-17T23:16:37.768Z,42.45
2022-11-17T23:19:41.436Z,49.88
2022-11-17T23:22:45.012Z,43.85
2022-11-17T23:25:47.936Z,41.67
2022-11-17T23:28:51.286Z,44.37
2022-11-17T23:31:54.237Z,44.40
2022-11-17T23:34:57.409Z,43.05
2022-11-17T23:38:00.445Z,41.97
2022-11-17T23:41:07.589Z,45.05
2022-11-17T23:44:11.101Z,46.50
2022-11-17T23:47:13.878Z,45.70
2022-11-17T23:50:17.147Z,45.47
2022-11-17T23:53:20.277Z,42.70
2022-11-17T23:56:23.559Z,47.20
2022-11-17T23:59:26.414Z,41.43
